createdAt,value
2019-05-25T00:01:08.975Z,10
2019-05-25T00:11:13.920Z,11
2019-05-25T00:21:19.476Z,10
2019-05-25T00:31:23.906Z,10
2019-05-25T00:41:30.141Z,9
2019-05-25T00:51:35.594Z,8
2019-05-25T01:01:41.000Z,9
2019-05-25T01:11:45.738Z,9
2019-05-25T01:21:51.798Z,7
2019-05-25T01:31:57.419Z,9
2019-05-25T01:42:02.851Z,9
2019-05-25T01:52:07.791Z,9
2019-05-25T02:02:13.837Z,10
2019-05-25T02:12:19.282Z,8
2019-05-25T02:22:24.077Z,7
2019-05-25T02:32:29.971Z,9
2019-05-25T02:42:33.897Z,10
2019-05-25T02:52:40.716Z,11
2019-05-25T03:02:45.059Z,8
2019-05-25T03:12:50.746Z,12
2019-05-25T03:22:55.481Z,9
2019-05-25T03:33:01.185Z,9
2019-05-25T03:43:04.852Z,9
2019-05-25T03:53:08.540Z,10
2019-05-25T04:03:13.386Z,8
2019-05-25T04:13:17.902Z,11
2019-05-25T04:23:22.692Z,8
2019-05-25T04:33:26.518Z,9
2019-05-25T04:43:30.978Z,8
2019-05-25T04:53:35.658Z,8
2019-05-25T05:03:42.425Z,8
2019-05-25T05:13:50.089Z,9
2019-05-25T05:23:54.421Z,10
2019-05-25T05:33:59.394Z,11
2019-05-25T05:44:04.011Z,8
2019-05-25T05:54:09.002Z,10
2019-05-25T06:04:13.852Z,8
2019-05-25T06:14:19.723Z,10
2019-05-25T06:24:26.607Z,9
2019-05-25T06:34:31.068Z,11
2019-05-25T06:44:37.087Z,11
2019-05-25T06:54:39.629Z,10
2019-05-25T07:04:44.547Z,12
2019-05-25T07:14:48.909Z,10
2019-05-25T07:24:53.275Z,10
2019-05-25T07:34:58.747Z,10
2019-05-25T07:45:04.842Z,11
2019-05-25T07:55:10.514Z,9
2019-05-25T08:05:15.084Z,12
2019-05-25T08:15:20.931Z,13
2019-05-25T09:36:02.318Z,17
2019-05-25T09:46:09.564Z,15
2019-05-25T09:56:15.004Z,19
2019-05-25T10:06:20.365Z,19
2019-05-25T10:16:25.128Z,21
2019-05-25T10:26:30.128Z,35
2019-05-25T10:56:44.821Z,18
2019-05-25T11:16:55.951Z,15
2019-05-25T11:27:00.060Z,13
2019-05-25T11:37:07.148Z,14
2019-05-25T11:47:10.530Z,12
2019-05-25T11:57:15.470Z,13
2019-05-25T12:07:20.526Z,11
2019-05-25T12:17:26.508Z,14
2019-05-25T12:27:31.991Z,11
2019-05-25T12:37:35.795Z,8
2019-05-25T12:47:40.348Z,11
2019-05-25T12:57:51.682Z,8
2019-05-25T13:07:52.496Z,12
2019-05-25T13:17:58.315Z,10
2019-05-25T13:28:01.716Z,12
2019-05-25T13:38:05.984Z,12
2019-05-25T13:48:12.090Z,13
2019-05-25T13:58:19.950Z,16
2019-05-25T14:08:25.642Z,16
2019-05-25T14:18:31.089Z,22
2019-05-25T14:28:36.044Z,15
2019-05-25T14:38:40.322Z,16
2019-05-25T14:48:46.689Z,14
2019-05-25T14:58:54.697Z,15
2019-05-25T15:08:56.024Z,17
2019-05-25T15:19:02.853Z,13
2019-05-25T15:29:11.716Z,13
2019-05-25T15:39:11.349Z,16
2019-05-25T15:49:16.234Z,16
2019-05-25T15:59:23.982Z,15
2019-05-25T16:09:25.757Z,16
2019-05-25T16:19:30.217Z,15
2019-05-25T16:29:36.068Z,14
2019-05-25T16:39:41.378Z,12
2019-05-25T16:49:48.367Z,17
2019-05-25T16:59:54.807Z,17
2019-05-25T17:10:01.788Z,16
2019-05-25T17:20:06.222Z,21
2019-05-25T17:30:12.908Z,42
2019-05-25T17:40:16.079Z,22
2019-05-25T17:50:21.849Z,23
2019-05-25T18:00:30.023Z,20
2019-05-25T18:10:31.016Z,19
2019-05-25T18:20:35.413Z,18
2019-05-25T18:30:40.378Z,18
2019-05-25T18:40:45.069Z,19
2019-05-25T18:50:51.216Z,21
2019-05-25T19:00:56.587Z,20
2019-05-25T19:11:02.888Z,18
2019-05-25T19:21:08.354Z,20
2019-05-25T19:31:13.414Z,19
2019-05-25T19:41:19.049Z,20
2019-05-25T19:51:26.992Z,17
2019-05-25T20:01:29.264Z,16
2019-05-25T20:11:37.210Z,20
2019-05-25T20:21:39.907Z,20
2019-05-25T20:31:45.899Z,17
2019-05-25T20:41:52.464Z,13
2019-05-25T20:51:58.682Z,13
2019-05-25T21:02:04.610Z,12
2019-05-25T21:12:10.354Z,10
2019-05-25T21:22:15.022Z,9
2019-05-25T21:32:21.190Z,11
2019-05-25T21:42:24.076Z,12
2019-05-25T21:52:28.136Z,15
2019-05-25T22:02:33.751Z,17
2019-05-25T22:12:40.983Z,28
2019-05-25T22:22:44.259Z,23
2019-05-25T22:32:49.075Z,20
2019-05-25T22:42:54.230Z,24
2019-05-25T22:53:00.754Z,13
2019-05-25T23:03:05.527Z,16
2019-05-25T23:13:10.429Z,9
2019-05-25T23:23:15.694Z,10
2019-05-25T23:33:20.544Z,8
2019-05-25T23:43:25.321Z,17
2019-05-25T23:53:31.061Z,14
